• Join FlightAware (Why Join?)
  • Login
  • US Flag 
03:31AM EDT


 

Airport Tracker/Info


-or-


 

Live Flight TrackerFlight Track Log ✈ RXA823 ✈ 27-Apr-2012 ✈ YSDU / DBO - YSSY / SYD

Flight Track Log - Related Links

Times and Time Zones

All times are in EDT time to prevent confusion due to time zone crossing. See the RXA823 flight status page for this flight to view local times or setup timezone preferences in your user account.

Time Position Orientation Groundspeed Altitude Reporting Facility
EDT Latitude Longitude Course Direction KTS MPH feet Rate Location/Type
06:11PM -32.3430 148.6709 147° Southeast 18,200  Level Aus ATC (Calculated)
06:12PM -32.4046 148.7176 145° Southeast 18,200 -2,220 Level Aus ATC (Calculated)
06:13PM -32.4662 148.7643 329° Northwest 18,200 -3,000 Level Aus ATC (Calculated)
06:15PM -32.5278 148.8112 328° Northwest 18,200 -4,020 Level Aus ATC (Calculated)
06:15PM -32.4297 148.7381 145° Southeast 189 217 9,600 -6,900 Descending Aus ATC (RADAR)
06:16PM -32.4539 148.7581 148° Southeast 185 213 10,200 780 Climbing Aus ATC (RADAR)
06:17PM -32.5163 148.8040 146° Southeast 208 239 11,200 720 Climbing Aus ATC (RADAR)
06:18PM -32.5656 148.8432 148° Southeast 214 246 11,900 660 Climbing Aus ATC (RADAR)
06:19PM -32.6046 148.8716 147° Southeast 220 253 12,400 720 Climbing Aus ATC (RADAR)
06:19PM -32.6338 148.8943 147° Southeast 215 247 12,900 900 Climbing Aus ATC (RADAR)
06:20PM -32.6624 148.9160 147° Southeast 209 241 13,500 960 Climbing Aus ATC (RADAR)
06:21PM -32.6901 148.9375 147° Southeast 205 236 14,100 900 Climbing Aus ATC (RADAR)
06:21PM -32.7177 148.9588 147° Southeast 202 232 14,600 780 Climbing Aus ATC (RADAR)
06:22PM -32.7765 149.0038 147° Southeast 205 236 15,600 720 Climbing Aus ATC (RADAR)
06:23PM -32.8262 149.0420 146° Southeast 214 246 16,300 720 Climbing Aus ATC (RADAR)
06:24PM -32.8636 149.0715 147° Southeast 214 246 16,900 720 Climbing Aus ATC (RADAR)
06:25PM -32.8923 149.0937 147° Southeast 210 242 17,300 660 Climbing Aus ATC (RADAR)
06:25PM -32.9290 149.1216 147° Southeast 208 239 17,800 540 Climbing Aus ATC (RADAR)
06:27PM -33.0129 149.1867 147° Southeast 222 255 18,600 420 Climbing Aus ATC (RADAR)
06:28PM -33.0609 149.2243 147° Southeast 227 261 18,900 360 Climbing Aus ATC (RADAR)
06:29PM -33.0924 149.2489 147° Southeast 231 266 19,200 180 Climbing Aus ATC (RADAR)
06:29PM -33.1335 149.2810 147° Southeast 237 273 19,200  Level Aus ATC (RADAR)
06:30PM -33.1679 149.3072 147° Southeast 251 289 19,200  Level Aus ATC (RADAR)
06:31PM -33.2180 149.3467 147° Southeast 259 298 19,200  Level Aus ATC (RADAR)
06:33PM -33.3391 149.4415 147° Southeast 277 319 19,200  Level Aus ATC (RADAR)
06:34PM -33.4035 149.4914 139° Southeast 277 319 19,200  Level Aus ATC (RADAR)
06:34PM -33.4474 149.5368 127° Southeast 277 319 19,200  Level Aus ATC (RADAR)
06:35PM -33.4753 149.5815 128° Southeast 284 327 19,200  Level Aus ATC (RADAR)
06:36PM -33.5120 149.6382 129° Southeast 285 328 19,200  Level Aus ATC (RADAR)
06:37PM -33.5947 149.7626 128° Southeast 283 326 19,200  Level Aus ATC (RADAR)
06:38PM -33.6447 149.8383 128° Southeast 286 329 19,200  Level Aus ATC (RADAR)
06:39PM -33.6821 149.8951 129° Southeast 286 329 19,200  Level Aus ATC (RADAR)
06:40PM -33.7112 149.9389 128° Southeast 285 328 19,200  Level Aus ATC (RADAR)
06:40PM -33.7401 149.9828 128° Southeast 284 327 19,200  Level Aus ATC (RADAR)
06:41PM -33.7688 150.0264 128° Southeast 282 325 19,200  Level Aus ATC (RADAR)
06:42PM -33.7976 150.0702 128° Southeast 281 323 19,200 -1,080 Level Aus ATC (RADAR)
06:43PM -33.8699 150.1801 128° Southeast 294 338 17,100 -1,560 Descending Aus ATC (RADAR)
06:44PM -33.9181 150.2538 128° Southeast 301 346 15,600 -1,500 Descending Aus ATC (RADAR)
06:45PM -33.9529 150.3076 128° Southeast 298 343 14,700 -1,440 Descending Aus ATC (RADAR)
06:46PM -34.0050 150.3877 128° Southeast 294 338 13,200 -1,440 Descending Aus ATC (RADAR)
06:46PM -34.0464 150.4516 114° Southeast 281 323 12,200 -1,320 Descending Aus ATC (RADAR)
06:48PM -34.0833 150.5507 75° East 282 325 10,600 -1,440 Descending Aus ATC (RADAR)
06:48PM -34.0658 150.6301 74° East 281 323 9,400 -1,500 Descending Aus ATC (RADAR)
06:49PM -34.0530 150.6842 75° East 275 316 8,500 -1,500 Descending Aus ATC (RADAR)
06:50PM -34.0382 150.7511 76° East 262 302 7,400 -1,380 Descending Aus ATC (RADAR)
06:50PM -34.0276 150.8015 88° East 256 295 6,700 -1,020 Descending Aus ATC (RADAR)
06:51PM -34.0259 150.8752 93° East 259 298 6,000 -300 Descending Aus ATC (RADAR)
06:53PM -34.0324 151.0223 154° Southeast 256 295 6,000 -180 Level Aus ATC (RADAR)
06:54PM -34.0890 151.0559 123° Southeast 230 265 5,600 -840 Descending Aus ATC (RADAR)
06:55PM -34.1157 151.1065 93° East 213 245 4,500 -1,320 Descending Aus ATC (RADAR)
06:55PM -34.1177 151.1469 43° Northeast 202 232 3,800 -1,320 Descending Aus ATC (RADAR)
06:56PM -34.0891 151.1785 10° North 198 228 2,800 -1,140 Descending Aus ATC (RADAR)
06:58PM -34.0138 151.1939 348° North 144 166 1,200 -960 Descending Aus ATC (RADAR)
06:58PM -33.9820 151.1854 348° North 138 159 500 -900 Descending Aus ATC (RADAR)